Time;durP1;ratioP1;P1;durP2;ratioP2;P2;SDS_P1;SDS_P2;PMS_P1;PMS_P2;Temp;Humidity;BMP_temperature;BMP_pressure;BME280_temperature;BME280_humidity;BME280_pressure;Samples;Min_cycle;Max_cycle;Signal;HPM_P1;HPM_P2
2023/08/08 00:01:47;;;;;;;8.13;3.42;;;;;;;;;;5014924;28;20242;-70
2023/08/08 00:04:13;;;;;;;5.55;3.03;;;;;;;;;;5009334;28;20253;-69
2023/08/08 00:06:38;;;;;;;4.15;3.03;;;;;;;;;;5024609;28;20198;-69
2023/08/08 00:09:04;;;;;;;6.43;3.20;;;;;;;;;;5030071;28;20273;-69
2023/08/08 00:11:30;;;;;;;9.68;3.60;;;;;;;;;;5020565;28;20186;-70
2023/08/08 00:13:56;;;;;;;11.48;3.40;;;;;;;;;;5020004;28;20193;-70
2023/08/08 00:16:22;;;;;;;6.53;3.17;;;;;;;;;;5023171;28;20223;-70
2023/08/08 00:18:50;;;;;;;8.85;3.70;;;;;;;;;;5026729;28;20289;-70
2023/08/08 00:21:16;;;;;;;5.50;3.53;;;;;;;;;;5023644;28;20183;-70
2023/08/08 00:23:41;;;;;;;8.15;3.65;;;;;;;;;;5027901;28;20272;-70
2023/08/08 00:26:06;;;;;;;4.68;3.83;;;;;;;;;;5023855;28;20253;-70
2023/08/08 00:28:32;;;;;;;7.88;4.30;;;;;;;;;;5014453;28;20201;-70
2023/08/08 00:30:57;;;;;;;7.88;4.80;;;;;;;;;;5032707;28;20195;-70
2023/08/08 00:33:23;;;;;;;7.28;4.80;;;;;;;;;;5019411;28;20178;-69
2023/08/08 00:35:48;;;;;;;10.73;5.07;;;;;;;;;;5027978;28;20216;-69
2023/08/08 00:38:14;;;;;;;10.50;4.88;;;;;;;;;;5011222;28;20183;-70
2023/08/08 00:40:39;;;;;;;8.30;5.15;;;;;;;;;;5018299;28;20283;-70
2023/08/08 00:43:05;;;;;;;9.85;5.00;;;;;;;;;;5013280;28;20653;-70
2023/08/08 00:45:30;;;;;;;10.98;4.88;;;;;;;;;;5025654;28;20197;-69
2023/08/08 00:47:56;;;;;;;6.90;4.45;;;;;;;;;;5028197;28;20351;-70
2023/08/08 00:50:22;;;;;;;7.78;4.72;;;;;;;;;;5027727;28;20247;-69
2023/08/08 00:52:49;;;;;;;9.05;5.07;;;;;;;;;;5029795;28;20300;-69
2023/08/08 00:55:14;;;;;;;8.02;4.60;;;;;;;;;;5029494;28;20197;-70
2023/08/08 00:57:40;;;;;;;8.93;5.10;;;;;;;;;;5027817;28;20190;-69
2023/08/08 01:00:07;;;;;;;9.57;4.65;;;;;;;;;;5029436;28;20213;-68
2023/08/08 01:02:33;;;;;;;11.30;5.18;;;;;;;;;;5023904;28;20209;-68
2023/08/08 01:04:59;;;;;;;7.30;4.53;;;;;;;;;;5029060;28;20190;-68
2023/08/08 01:07:38;;;;;;;11.18;4.82;;;;;;;;;;5023318;28;20202;-69
2023/08/08 01:10:09;;;;;;;11.70;5.00;;;;;;;;;;5028981;28;20182;-68
2023/08/08 01:12:39;;;;;;;10.30;5.25;;;;;;;;;;5029759;28;20193;-69
2023/08/08 01:15:08;;;;;;;10.55;6.20;;;;;;;;;;5028360;28;20190;-69
2023/08/08 01:17:35;;;;;;;10.40;5.07;;;;;;;;;;5024736;28;20301;-69
2023/08/08 01:20:03;;;;;;;11.90;5.35;;;;;;;;;;5028725;28;20629;-70
2023/08/08 01:22:37;;;;;;;10.38;4.97;;;;;;;;;;5031952;28;20513;-69
2023/08/08 01:25:04;;;;;;;15.85;5.75;;;;;;;;;;5026447;28;20201;-69
2023/08/08 01:27:30;;;;;;;9.77;4.70;;;;;;;;;;5031130;28;20204;-70
2023/08/08 01:29:55;;;;;;;10.88;5.15;;;;;;;;;;5035024;28;20182;-69
2023/08/08 01:32:21;;;;;;;14.48;5.30;;;;;;;;;;5039153;28;20221;-69
2023/08/08 01:34:47;;;;;;;8.38;4.88;;;;;;;;;;5032733;28;20652;-69
2023/08/08 01:37:20;;;;;;;13.55;4.88;;;;;;;;;;5028942;28;20284;-69
2023/08/08 01:39:46;;;;;;;11.48;4.95;;;;;;;;;;5022363;28;20328;-68
2023/08/08 01:42:14;;;;;;;10.30;5.07;;;;;;;;;;5028564;28;20377;-69
2023/08/08 01:44:41;;;;;;;13.65;4.95;;;;;;;;;;5027137;28;20219;-68
2023/08/08 01:47:08;;;;;;;13.25;5.15;;;;;;;;;;5026968;28;20205;-71
2023/08/08 01:49:33;;;;;;;10.77;4.97;;;;;;;;;;5018556;28;20536;-69
2023/08/08 01:51:58;;;;;;;12.48;5.25;;;;;;;;;;5033446;28;20197;-69
2023/08/08 01:54:24;;;;;;;14.48;5.18;;;;;;;;;;5031757;28;20274;-71
2023/08/08 01:56:49;;;;;;;13.55;5.32;;;;;;;;;;5027766;28;20190;-69
2023/08/08 01:59:15;;;;;;;8.57;5.05;;;;;;;;;;5028920;28;20305;-68
2023/08/08 02:01:40;;;;;;;13.88;5.40;;;;;;;;;;5031948;28;20646;-70
2023/08/08 02:04:06;;;;;;;9.30;5.28;;;;;;;;;;5027808;28;20213;-69
2023/08/08 02:06:31;;;;;;;14.13;5.65;;;;;;;;;;5026943;28;20187;-68
2023/08/08 02:08:56;;;;;;;15.10;5.43;;;;;;;;;;5031049;28;20299;-68
2023/08/08 02:11:22;;;;;;;16.10;5.30;;;;;;;;;;5029052;28;20198;-69
2023/08/08 02:13:47;;;;;;;11.65;5.05;;;;;;;;;;5021358;28;20661;-69
2023/08/08 02:16:13;;;;;;;11.35;4.70;;;;;;;;;;5030527;28;20280;-69
2023/08/08 02:18:40;;;;;;;13.90;6.30;;;;;;;;;;5031640;28;20689;-68
2023/08/08 02:21:07;;;;;;;13.98;5.53;;;;;;;;;;5023667;28;20202;-69
2023/08/08 02:23:33;;;;;;;15.68;5.78;;;;;;;;;;5031103;28;20217;-68
2023/08/08 02:25:58;;;;;;;9.80;5.40;;;;;;;;;;5032755;28;20568;-69
2023/08/08 02:28:24;;;;;;;13.35;6.00;;;;;;;;;;5017720;28;20237;-68
2023/08/08 02:30:49;;;;;;;15.25;6.72;;;;;;;;;;5032775;28;20567;-68
2023/08/08 02:33:14;;;;;;;11.35;5.68;;;;;;;;;;5030172;28;20193;-70
2023/08/08 02:35:40;;;;;;;12.70;6.45;;;;;;;;;;5032704;28;20669;-69
2023/08/08 02:38:05;;;;;;;14.30;6.65;;;;;;;;;;5030811;28;20201;-69
2023/08/08 02:40:32;;;;;;;14.82;6.50;;;;;;;;;;5029495;28;20205;-68
2023/08/08 02:42:57;;;;;;;12.73;6.82;;;;;;;;;;5019468;28;20245;-69
2023/08/08 02:45:23;;;;;;;13.05;6.60;;;;;;;;;;5028624;28;20600;-69
2023/08/08 02:47:48;;;;;;;16.75;7.05;;;;;;;;;;5029365;28;20200;-69
2023/08/08 02:50:13;;;;;;;15.13;6.40;;;;;;;;;;5030090;28;20614;-69
2023/08/08 02:52:39;;;;;;;16.48;6.53;;;;;;;;;;5029878;28;20349;-71
2023/08/08 02:55:05;;;;;;;12.32;7.00;;;;;;;;;;5031703;28;20190;-69
2023/08/08 02:57:30;;;;;;;15.90;6.68;;;;;;;;;;5029924;28;20229;-68
2023/08/08 02:59:55;;;;;;;10.48;6.80;;;;;;;;;;5032389;28;20194;-69
2023/08/08 03:02:21;;;;;;;14.63;5.93;;;;;;;;;;5017966;28;20608;-69
2023/08/08 03:04:46;;;;;;;18.10;7.20;;;;;;;;;;5032009;28;20201;-69
2023/08/08 03:07:11;;;;;;;15.07;6.15;;;;;;;;;;5023255;28;20190;-69
2023/08/08 03:09:37;;;;;;;13.35;6.88;;;;;;;;;;5026769;28;20190;-68
2023/08/08 03:12:02;;;;;;;14.85;6.72;;;;;;;;;;5016460;28;20202;-68
2023/08/08 03:14:29;;;;;;;13.38;6.63;;;;;;;;;;5024506;28;20186;-69
2023/08/08 03:16:54;;;;;;;15.43;6.68;;;;;;;;;;5016790;28;20668;-68
2023/08/08 03:19:20;;;;;;;11.63;6.15;;;;;;;;;;5030461;28;20194;-70
2023/08/08 03:21:45;;;;;;;17.05;6.75;;;;;;;;;;5030543;28;20193;-69
2023/08/08 03:24:11;;;;;;;15.68;7.05;;;;;;;;;;5020630;28;20225;-69
2023/08/08 03:26:36;;;;;;;17.73;7.40;;;;;;;;;;5030576;28;20265;-70
2023/08/08 03:29:02;;;;;;;15.10;6.25;;;;;;;;;;5018426;28;20194;-69
2023/08/08 03:31:27;;;;;;;16.05;6.47;;;;;;;;;;5014070;28;20190;-69
2023/08/08 03:33:53;;;;;;;13.40;6.38;;;;;;;;;;5028278;28;20261;-69
2023/08/08 03:36:18;;;;;;;19.80;6.88;;;;;;;;;;5035068;28;20374;-69
2023/08/08 03:38:45;;;;;;;17.88;6.82;;;;;;;;;;5028392;28;20199;-69
2023/08/08 03:41:11;;;;;;;12.13;6.65;;;;;;;;;;5021315;28;20213;-69
2023/08/08 03:43:38;;;;;;;14.10;7.28;;;;;;;;;;5016956;28;20328;-69
2023/08/08 03:46:03;;;;;;;15.88;6.80;;;;;;;;;;5030793;28;20666;-69
2023/08/08 03:48:28;;;;;;;14.52;6.82;;;;;;;;;;5028794;28;20268;-70
2023/08/08 03:50:54;;;;;;;20.02;7.35;;;;;;;;;;5030236;28;20646;-69
2023/08/08 03:53:19;;;;;;;21.00;8.25;;;;;;;;;;5019312;28;20249;-69
2023/08/08 03:55:44;;;;;;;16.17;7.03;;;;;;;;;;5027409;28;20190;-69
2023/08/08 03:58:10;;;;;;;16.35;6.70;;;;;;;;;;5021466;28;20689;-69
2023/08/08 04:00:36;;;;;;;19.20;7.55;;;;;;;;;;5030311;28;20197;-69
2023/08/08 04:03:01;;;;;;;18.73;7.28;;;;;;;;;;5025651;28;20217;-69
2023/08/08 04:05:26;;;;;;;15.10;7.97;;;;;;;;;;5028582;28;20202;-70
2023/08/08 04:07:52;;;;;;;14.48;7.45;;;;;;;;;;5030179;28;20203;-69
2023/08/08 04:10:17;;;;;;;17.45;7.78;;;;;;;;;;5020985;28;20187;-70
2023/08/08 04:12:43;;;;;;;19.50;7.82;;;;;;;;;;5018652;28;20202;-70
2023/08/08 04:15:09;;;;;;;17.45;7.45;;;;;;;;;;5028763;28;20183;-69
2023/08/08 04:17:34;;;;;;;21.25;8.00;;;;;;;;;;5026375;28;20271;-69
2023/08/08 04:20:00;;;;;;;19.80;7.70;;;;;;;;;;5027699;28;20649;-69
2023/08/08 04:22:25;;;;;;;18.60;7.50;;;;;;;;;;5027291;28;20182;-69
2023/08/08 04:24:50;;;;;;;17.25;6.88;;;;;;;;;;5024368;28;20190;-69
2023/08/08 04:27:16;;;;;;;14.38;7.00;;;;;;;;;;5029696;28;20186;-70
2023/08/08 04:29:41;;;;;;;16.90;7.38;;;;;;;;;;5020372;28;20193;-68
2023/08/08 04:32:07;;;;;;;14.32;7.07;;;;;;;;;;5031037;28;20190;-70
2023/08/08 04:34:32;;;;;;;15.40;7.07;;;;;;;;;;5022314;28;20616;-69
2023/08/08 04:36:58;;;;;;;18.85;7.57;;;;;;;;;;5029338;28;20674;-70
2023/08/08 04:39:23;;;;;;;14.95;6.70;;;;;;;;;;5029798;28;20273;-68
2023/08/08 04:41:49;;;;;;;17.48;7.20;;;;;;;;;;5028810;28;20217;-69
2023/08/08 04:44:14;;;;;;;16.05;7.47;;;;;;;;;;5020999;28;20249;-70
2023/08/08 04:46:39;;;;;;;15.30;7.10;;;;;;;;;;5030290;28;20182;-70
2023/08/08 04:49:05;;;;;;;15.00;6.22;;;;;;;;;;5028611;28;20657;-69
2023/08/08 04:51:30;;;;;;;16.80;5.90;;;;;;;;;;5029919;28;20198;-71
2023/08/08 04:53:56;;;;;;;17.40;5.28;;;;;;;;;;5018403;28;20650;-69
2023/08/08 04:56:21;;;;;;;16.73;5.25;;;;;;;;;;5029242;28;20194;-69
2023/08/08 04:58:46;;;;;;;10.77;5.78;;;;;;;;;;5023956;28;20526;-69
2023/08/08 05:01:14;;;;;;;15.13;6.25;;;;;;;;;;5018425;28;20332;-69
2023/08/08 05:03:40;;;;;;;12.65;5.07;;;;;;;;;;5021390;28;20500;-70
2023/08/08 05:06:05;;;;;;;12.55;4.85;;;;;;;;;;5028557;28;20193;-69
2023/08/08 05:08:31;;;;;;;15.30;5.70;;;;;;;;;;5029122;28;20194;-68
2023/08/08 05:10:56;;;;;;;14.90;5.00;;;;;;;;;;5021777;28;20193;-69
2023/08/08 05:13:21;;;;;;;11.90;4.97;;;;;;;;;;5029251;28;20213;-68
2023/08/08 05:15:47;;;;;;;12.15;4.90;;;;;;;;;;5027366;28;20754;-70
2023/08/08 05:18:12;;;;;;;13.77;4.65;;;;;;;;;;5025212;28;20217;-70
2023/08/08 05:20:38;;;;;;;11.80;4.57;;;;;;;;;;5029540;28;20182;-70
2023/08/08 05:23:03;;;;;;;11.32;4.25;;;;;;;;;;5015571;28;20225;-69
2023/08/08 05:25:29;;;;;;;13.05;4.40;;;;;;;;;;5025062;28;20201;-69
2023/08/08 05:27:54;;;;;;;13.27;4.30;;;;;;;;;;5012178;28;20250;-70
2023/08/08 05:30:20;;;;;;;14.02;4.60;;;;;;;;;;5040892;28;20202;-69
2023/08/08 05:32:45;;;;;;;8.32;3.45;;;;;;;;;;5029194;28;20186;-71
2023/08/08 05:35:10;;;;;;;7.60;3.95;;;;;;;;;;5026006;28;20182;-70
2023/08/08 05:37:36;;;;;;;14.98;4.68;;;;;;;;;;5026724;28;20296;-70
2023/08/08 05:40:02;;;;;;;10.55;4.18;;;;;;;;;;5023467;28;20190;-71
2023/08/08 05:42:27;;;;;;;8.27;3.90;;;;;;;;;;5029296;28;20229;-70
2023/08/08 05:44:53;;;;;;;12.18;4.50;;;;;;;;;;5028489;28;20637;-70
2023/08/08 05:47:18;;;;;;;14.65;4.32;;;;;;;;;;5027580;28;20529;-69
2023/08/08 05:49:43;;;;;;;7.75;3.70;;;;;;;;;;5028059;28;20326;-69
2023/08/08 05:52:09;;;;;;;14.82;3.90;;;;;;;;;;5028699;28;20653;-70
2023/08/08 05:54:34;;;;;;;9.52;3.78;;;;;;;;;;5022248;28;20197;-70
2023/08/08 05:57:00;;;;;;;11.68;3.67;;;;;;;;;;5007523;28;20264;-70
2023/08/08 05:59:25;;;;;;;10.05;4.00;;;;;;;;;;5024120;28;20183;-70
2023/08/08 06:01:51;;;;;;;10.25;4.18;;;;;;;;;;5027017;28;20197;-71
2023/08/08 06:04:17;;;;;;;7.70;3.88;;;;;;;;;;5024494;28;20277;-70
2023/08/08 06:06:42;;;;;;;11.85;4.20;;;;;;;;;;5028004;28;20186;-70
2023/08/08 06:09:08;;;;;;;9.50;3.50;;;;;;;;;;5022103;28;20195;-70
2023/08/08 06:11:34;;;;;;;11.65;3.65;;;;;;;;;;5028317;28;20293;-71
2023/08/08 06:13:59;;;;;;;13.70;3.78;;;;;;;;;;5029822;28;20550;-71
2023/08/08 06:16:25;;;;;;;10.93;3.72;;;;;;;;;;5032232;28;20243;-71
2023/08/08 06:18:52;;;;;;;9.95;3.50;;;;;;;;;;5024260;28;20214;-71
2023/08/08 06:21:17;;;;;;;10.93;3.70;;;;;;;;;;5024959;28;20240;-71
2023/08/08 06:23:43;;;;;;;9.63;3.80;;;;;;;;;;5032011;28;20245;-71
2023/08/08 06:26:09;;;;;;;9.35;3.65;;;;;;;;;;5027951;28;20253;-70
2023/08/08 06:28:34;;;;;;;11.73;3.03;;;;;;;;;;5024296;28;20265;-70
2023/08/08 06:31:01;;;;;;;8.57;2.90;;;;;;;;;;5022121;28;20305;-68
2023/08/08 06:33:28;;;;;;;9.20;2.75;;;;;;;;;;5029623;28;20622;-70
2023/08/08 06:35:54;;;;;;;7.95;3.38;;;;;;;;;;5031663;28;20265;-69
2023/08/08 06:38:19;;;;;;;12.85;2.80;;;;;;;;;;5017725;28;20274;-69
2023/08/08 06:40:44;;;;;;;8.52;3.00;;;;;;;;;;5031433;28;20200;-68
2023/08/08 06:43:10;;;;;;;9.52;2.70;;;;;;;;;;5031236;28;20704;-69
2023/08/08 06:45:36;;;;;;;10.30;2.50;;;;;;;;;;5028333;28;20423;-70
2023/08/08 06:48:01;;;;;;;10.82;2.70;;;;;;;;;;5031910;28;20654;-69
2023/08/08 06:50:26;;;;;;;6.15;3.00;;;;;;;;;;5012855;28;20265;-69
2023/08/08 06:52:52;;;;;;;6.28;2.33;;;;;;;;;;5031030;28;20561;-69
2023/08/08 06:55:17;;;;;;;4.85;2.10;;;;;;;;;;5031024;28;20277;-69
2023/08/08 06:57:43;;;;;;;7.47;2.53;;;;;;;;;;5030882;28;20610;-70
2023/08/08 07:00:11;;;;;;;11.50;2.05;;;;;;;;;;5031110;28;20700;-70
2023/08/08 07:02:37;;;;;;;7.22;2.22;;;;;;;;;;5025279;28;20190;-70
2023/08/08 07:05:03;;;;;;;7.55;1.88;;;;;;;;;;5030086;28;20194;-70
2023/08/08 07:07:30;;;;;;;9.02;1.80;;;;;;;;;;5031148;28;20198;-70
2023/08/08 07:09:56;;;;;;;5.82;1.67;;;;;;;;;;5030921;28;20321;-70
2023/08/08 07:12:21;;;;;;;6.57;1.70;;;;;;;;;;5030595;28;20182;-70
2023/08/08 07:14:47;;;;;;;6.60;1.92;;;;;;;;;;5029801;28;20247;-69
2023/08/08 07:17:12;;;;;;;13.30;1.45;;;;;;;;;;5031866;28;20228;-69
2023/08/08 07:19:37;;;;;;;6.60;1.90;;;;;;;;;;5030126;28;20205;-69
2023/08/08 07:22:03;;;;;;;7.65;1.95;;;;;;;;;;5030180;28;20547;-68
2023/08/08 07:24:28;;;;;;;8.07;1.92;;;;;;;;;;5030832;28;20301;-70
2023/08/08 07:26:55;;;;;;;12.02;1.85;;;;;;;;;;5030520;28;20205;-68
2023/08/08 07:29:21;;;;;;;5.57;1.73;;;;;;;;;;5029245;28;20549;-70
2023/08/08 07:31:46;;;;;;;7.65;2.50;;;;;;;;;;5030972;28;20190;-71
2023/08/08 07:34:12;;;;;;;4.43;1.35;;;;;;;;;;5031279;28;20194;-70
2023/08/08 07:36:37;;;;;;;6.45;1.77;;;;;;;;;;5028939;28;20237;-69
2023/08/08 07:39:02;;;;;;;5.55;1.42;;;;;;;;;;5029720;28;20591;-69
2023/08/08 07:41:30;;;;;;;6.43;1.80;;;;;;;;;;5030959;28;20267;-71
2023/08/08 07:43:55;;;;;;;5.43;1.90;;;;;;;;;;5029849;28;20297;-71
2023/08/08 07:46:21;;;;;;;4.93;1.42;;;;;;;;;;5030740;28;20273;-69
2023/08/08 07:48:46;;;;;;;4.78;1.50;;;;;;;;;;5011947;28;20194;-70
2023/08/08 07:51:11;;;;;;;5.28;1.48;;;;;;;;;;5019504;28;20532;-69
2023/08/08 07:53:37;;;;;;;4.78;1.30;;;;;;;;;;5029686;28;20194;-69
2023/08/08 07:56:02;;;;;;;7.78;1.50;;;;;;;;;;5028455;28;20191;-69
2023/08/08 07:58:28;;;;;;;5.45;1.08;;;;;;;;;;5022705;28;20677;-69
2023/08/08 08:00:53;;;;;;;5.00;1.45;;;;;;;;;;5030281;28;20197;-70
2023/08/08 08:03:21;;;;;;;5.57;1.30;;;;;;;;;;5029044;28;20305;-69
2023/08/08 08:05:47;;;;;;;3.63;1.10;;;;;;;;;;5016186;28;20190;-69
2023/08/08 08:08:12;;;;;;;6.57;1.30;;;;;;;;;;5029251;28;20236;-70
2023/08/08 08:10:38;;;;;;;4.05;1.38;;;;;;;;;;5022439;28;20228;-71
2023/08/08 08:13:03;;;;;;;4.78;1.30;;;;;;;;;;5029576;28;20190;-70
2023/08/08 08:15:29;;;;;;;2.67;1.05;;;;;;;;;;5028711;28;20193;-68
2023/08/08 08:17:54;;;;;;;9.80;1.50;;;;;;;;;;5037250;28;20209;-69
2023/08/08 08:20:20;;;;;;;5.03;1.00;;;;;;;;;;5029475;28;20205;-69
2023/08/08 08:22:46;;;;;;;7.40;1.52;;;;;;;;;;5029695;28;20204;-70
2023/08/08 08:25:13;;;;;;;6.22;1.10;;;;;;;;;;5022945;28;20616;-69
2023/08/08 08:27:38;;;;;;;5.70;0.98;;;;;;;;;;5029034;28;20229;-70
2023/08/08 08:30:06;;;;;;;4.85;1.48;;;;;;;;;;5024411;28;20644;-70
2023/08/08 08:32:36;;;;;;;2.83;1.20;;;;;;;;;;5029589;28;20190;-70
2023/08/08 08:35:03;;;;;;;6.20;1.05;;;;;;;;;;5027621;28;20192;-70
2023/08/08 08:37:30;;;;;;;6.97;1.10;;;;;;;;;;5028896;28;20185;-71
2023/08/08 08:39:55;;;;;;;4.10;1.25;;;;;;;;;;5023239;28;20197;-70
2023/08/08 08:42:21;;;;;;;3.10;1.05;;;;;;;;;;5028096;28;20228;-70
2023/08/08 08:44:49;;;;;;;5.05;1.02;;;;;;;;;;5022726;28;20222;-71
2023/08/08 08:47:17;;;;;;;4.68;1.30;;;;;;;;;;5028988;28;20193;-69
2023/08/08 08:49:45;;;;;;;5.25;1.77;;;;;;;;;;5023399;28;20195;-72
2023/08/08 08:52:11;;;;;;;4.15;1.00;;;;;;;;;;5021339;28;20197;-70
2023/08/08 08:54:36;;;;;;;4.47;1.00;;;;;;;;;;5020816;28;20252;-72
2023/08/08 08:57:02;;;;;;;5.32;2.00;;;;;;;;;;5026149;28;20190;-70
2023/08/08 08:59:27;;;;;;;4.57;1.30;;;;;;;;;;5022291;28;20237;-71
2023/08/08 09:01:53;;;;;;;4.78;1.20;;;;;;;;;;5023636;28;20252;-70
2023/08/08 09:04:20;;;;;;;3.42;1.00;;;;;;;;;;5015116;28;20222;-69
2023/08/08 09:06:47;;;;;;;6.30;1.35;;;;;;;;;;5017363;28;20187;-71
2023/08/08 09:09:16;;;;;;;6.20;0.88;;;;;;;;;;5028454;28;20279;-71
2023/08/08 09:11:51;;;;;;;3.05;0.82;;;;;;;;;;5029655;28;20235;-72
2023/08/08 09:14:25;;;;;;;3.67;0.88;;;;;;;;;;5033294;28;20200;-71
2023/08/08 09:16:53;;;;;;;5.60;1.05;;;;;;;;;;5028431;28;20395;-70
2023/08/08 09:19:19;;;;;;;3.22;1.00;;;;;;;;;;5025613;28;20559;-69
2023/08/08 09:21:44;;;;;;;3.05;0.93;;;;;;;;;;5026277;28;20194;-70
2023/08/08 09:24:10;;;;;;;3.97;1.00;;;;;;;;;;5029237;28;20229;-71
2023/08/08 09:26:35;;;;;;;2.38;0.73;;;;;;;;;;5025157;28;20216;-70
2023/08/08 09:29:02;;;;;;;3.92;0.82;;;;;;;;;;5029831;28;20189;-71
2023/08/08 09:31:28;;;;;;;4.72;0.80;;;;;;;;;;5024089;28;20600;-69
2023/08/08 09:33:56;;;;;;;4.70;0.82;;;;;;;;;;5029112;28;20293;-70
2023/08/08 09:36:23;;;;;;;3.33;0.65;;;;;;;;;;5028426;28;20197;-71
2023/08/08 09:38:49;;;;;;;5.00;1.30;;;;;;;;;;5007813;28;20198;-70
2023/08/08 09:41:14;;;;;;;4.00;0.93;;;;;;;;;;5014465;28;20226;-70
2023/08/08 09:43:43;;;;;;;3.63;0.70;;;;;;;;;;5028279;28;20246;-71
2023/08/08 09:46:09;;;;;;;3.17;0.65;;;;;;;;;;5026811;28;20297;-70
2023/08/08 09:48:35;;;;;;;4.10;0.68;;;;;;;;;;5031941;28;20264;-70
2023/08/08 09:51:01;;;;;;;1.52;0.55;;;;;;;;;;5026810;28;20190;-71
2023/08/08 09:53:30;;;;;;;4.90;0.85;;;;;;;;;;5033204;28;20186;-69
2023/08/08 09:55:56;;;;;;;7.05;1.17;;;;;;;;;;5024353;28;20194;-69
2023/08/08 09:58:22;;;;;;;6.20;1.25;;;;;;;;;;5032385;28;20198;-69
2023/08/08 10:00:50;;;;;;;3.97;1.00;;;;;;;;;;5027712;28;20186;-74
2023/08/08 10:03:17;;;;;;;1.98;0.80;;;;;;;;;;5031537;28;20198;-70
2023/08/08 10:05:43;;;;;;;6.68;1.20;;;;;;;;;;5026482;28;20182;-71
2023/08/08 10:08:09;;;;;;;5.65;1.00;;;;;;;;;;5032045;28;20197;-71
2023/08/08 10:10:35;;;;;;;4.18;1.10;;;;;;;;;;5030762;28;20275;-69
2023/08/08 10:13:01;;;;;;;4.55;1.15;;;;;;;;;;5030378;28;20210;-71
2023/08/08 10:15:29;;;;;;;3.75;0.80;;;;;;;;;;5024238;28;20245;-72
2023/08/08 10:17:56;;;;;;;3.25;0.85;;;;;;;;;;5025372;28;20210;-71
2023/08/08 10:20:21;;;;;;;2.70;0.65;;;;;;;;;;5032376;28;20681;-70
2023/08/08 10:22:47;;;;;;;3.03;0.85;;;;;;;;;;5031256;28;20281;-71
2023/08/08 10:25:27;;;;;;;3.30;0.68;;;;;;;;;;5018127;28;20272;-70
2023/08/08 10:28:13;;;;;;;3.90;0.90;;;;;;;;;;5019765;28;20194;-73
2023/08/08 10:30:58;;;;;;;5.50;0.95;;;;;;;;;;5011975;28;20186;-70
2023/08/08 10:33:43;;;;;;;5.10;0.98;;;;;;;;;;5011270;28;20561;-71
2023/08/08 10:36:09;;;;;;;3.25;0.88;;;;;;;;;;5018569;28;20588;-69
2023/08/08 10:38:48;;;;;;;4.68;0.93;;;;;;;;;;5025743;28;20654;-71
2023/08/08 10:41:26;;;;;;;4.15;0.90;;;;;;;;;;5013145;28;20709;-71
2023/08/08 10:43:58;;;;;;;5.03;0.70;;;;;;;;;;5029301;28;20619;-70
2023/08/08 10:46:27;;;;;;;1.27;0.50;;;;;;;;;;5025538;28;20237;-71
2023/08/08 10:48:56;;;;;;;2.67;0.80;;;;;;;;;;5027758;28;20449;-71
2023/08/08 10:51:21;;;;;;;1.90;0.68;;;;;;;;;;5027750;28;20590;-71
2023/08/08 10:53:51;;;;;;;2.60;0.70;;;;;;;;;;5029128;28;20185;-70
2023/08/08 10:56:18;;;;;;;1.05;0.50;;;;;;;;;;5027094;28;20186;-71
2023/08/08 10:58:48;;;;;;;1.27;0.68;;;;;;;;;;5021589;28;20194;-72
2023/08/08 11:01:16;;;;;;;3.25;0.60;;;;;;;;;;5027635;28;20197;-72
2023/08/08 11:03:42;;;;;;;1.23;0.70;;;;;;;;;;5021179;28;20212;-71
2023/08/08 11:06:08;;;;;;;1.30;0.50;;;;;;;;;;5030343;28;20268;-71
2023/08/08 11:08:35;;;;;;;5.18;0.93;;;;;;;;;;5030415;28;20217;-71
2023/08/08 11:11:01;;;;;;;3.17;0.70;;;;;;;;;;5026093;28;20221;-71
2023/08/08 11:13:27;;;;;;;2.70;0.68;;;;;;;;;;5030013;28;20308;-71
2023/08/08 11:15:52;;;;;;;3.00;0.70;;;;;;;;;;5030553;28;20725;-71
2023/08/08 11:18:18;;;;;;;2.95;0.70;;;;;;;;;;5030125;28;20561;-72
2023/08/08 11:20:44;;;;;;;5.47;0.70;;;;;;;;;;5031372;28;20198;-70
2023/08/08 11:23:12;;;;;;;3.10;0.70;;;;;;;;;;5026039;28;20256;-70
2023/08/08 11:25:41;;;;;;;3.90;0.75;;;;;;;;;;5029357;28;20645;-70
2023/08/08 11:28:06;;;;;;;3.20;0.95;;;;;;;;;;5030241;28;20232;-69
2023/08/08 11:30:38;;;;;;;2.65;0.65;;;;;;;;;;5029891;28;20918;-70
2023/08/08 11:33:04;;;;;;;2.38;0.90;;;;;;;;;;5027071;28;20192;-71
2023/08/08 11:35:30;;;;;;;0.95;0.60;;;;;;;;;;5028626;28;20602;-70
2023/08/08 11:37:57;;;;;;;2.20;0.77;;;;;;;;;;5022454;28;20182;-70
2023/08/08 11:40:25;;;;;;;1.73;0.68;;;;;;;;;;5028476;28;20289;-71
2023/08/08 11:42:51;;;;;;;4.28;0.80;;;;;;;;;;5015261;28;20229;-70
2023/08/08 11:45:17;;;;;;;2.45;0.90;;;;;;;;;;5007772;28;20197;-70
2023/08/08 11:47:43;;;;;;;1.42;0.68;;;;;;;;;;5030763;28;20528;-71
2023/08/08 11:50:10;;;;;;;2.08;0.73;;;;;;;;;;5030667;28;20190;-71
2023/08/08 11:52:40;;;;;;;3.08;0.73;;;;;;;;;;5026107;28;20266;-71
2023/08/08 11:55:09;;;;;;;2.65;0.88;;;;;;;;;;5030645;28;20258;-72
2023/08/08 11:57:37;;;;;;;3.47;0.90;;;;;;;;;;5028882;28;20298;-71
2023/08/08 12:00:07;;;;;;;1.95;0.70;;;;;;;;;;5029840;28;20229;-71
2023/08/08 12:02:34;;;;;;;1.52;0.80;;;;;;;;;;5035290;28;20655;-73
2023/08/08 12:05:11;;;;;;;1.67;0.65;;;;;;;;;;5017829;28;20202;-71
2023/08/08 12:07:39;;;;;;;1.52;0.55;;;;;;;;;;5024345;28;20267;-72
2023/08/08 12:10:06;;;;;;;1.90;0.60;;;;;;;;;;5030192;28;20187;-71
2023/08/08 12:12:35;;;;;;;1.75;0.60;;;;;;;;;;5029450;28;20248;-73
2023/08/08 12:15:06;;;;;;;1.45;0.50;;;;;;;;;;5029195;28;20228;-71
2023/08/08 12:17:32;;;;;;;4.00;0.82;;;;;;;;;;5028571;28;20670;-71
2023/08/08 12:20:03;;;;;;;1.88;0.60;;;;;;;;;;5027674;28;20220;-71
2023/08/08 12:22:29;;;;;;;1.58;0.60;;;;;;;;;;5026100;28;20268;-71
2023/08/08 12:24:54;;;;;;;1.65;0.70;;;;;;;;;;5029201;28;20665;-71
2023/08/08 12:27:20;;;;;;;1.35;0.63;;;;;;;;;;5029968;28;20666;-71
2023/08/08 12:29:45;;;;;;;0.95;0.50;;;;;;;;;;5022025;28;20202;-72
2023/08/08 12:32:10;;;;;;;2.75;1.05;;;;;;;;;;5029490;28;20186;-69
2023/08/08 12:34:36;;;;;;;1.02;0.55;;;;;;;;;;5030234;28;20668;-70
2023/08/08 12:37:02;;;;;;;0.60;0.40;;;;;;;;;;5016283;28;20236;-72
2023/08/08 12:39:28;;;;;;;1.25;0.50;;;;;;;;;;5021419;28;20270;-70
2023/08/08 12:41:53;;;;;;;2.90;1.20;;;;;;;;;;5025187;28;20323;-71
2023/08/08 12:44:18;;;;;;;0.70;0.50;;;;;;;;;;5028855;28;20245;-72
2023/08/08 12:46:44;;;;;;;1.23;0.70;;;;;;;;;;5018306;28;20194;-71
2023/08/08 12:49:09;;;;;;;0.95;0.60;;;;;;;;;;5022024;28;20191;-71
2023/08/08 12:51:35;;;;;;;1.42;0.70;;;;;;;;;;5019153;28;20654;-71
2023/08/08 12:54:00;;;;;;;1.67;0.60;;;;;;;;;;5028796;28;20186;-72
2023/08/08 12:56:25;;;;;;;2.80;0.80;;;;;;;;;;5029326;28;20256;-72
2023/08/08 12:58:51;;;;;;;5.10;0.82;;;;;;;;;;5028176;28;20273;-71
2023/08/08 13:01:16;;;;;;;1.42;0.57;;;;;;;;;;5029020;28;20550;-70
2023/08/08 13:03:41;;;;;;;2.40;0.88;;;;;;;;;;5027387;28;20408;-71
2023/08/08 13:06:07;;;;;;;1.60;0.70;;;;;;;;;;5027690;28;20557;-73
2023/08/08 13:08:32;;;;;;;1.50;0.70;;;;;;;;;;5015729;28;20269;-71
2023/08/08 13:10:58;;;;;;;2.55;0.73;;;;;;;;;;5018653;28;20198;-73
2023/08/08 13:13:25;;;;;;;3.42;0.93;;;;;;;;;;5028683;28;20186;-72
2023/08/08 13:15:51;;;;;;;1.80;0.65;;;;;;;;;;5029566;28;20543;-73
2023/08/08 13:18:16;;;;;;;1.60;1.05;;;;;;;;;;5016263;28;20213;-72
2023/08/08 13:20:42;;;;;;;2.47;0.73;;;;;;;;;;5033826;28;20206;-72
2023/08/08 13:23:08;;;;;;;2.90;0.77;;;;;;;;;;5018599;28;20297;-72
2023/08/08 13:25:34;;;;;;;3.47;0.80;;;;;;;;;;5029183;28;20541;-71
2023/08/08 13:28:00;;;;;;;2.25;0.75;;;;;;;;;;5018401;28;20216;-72
2023/08/08 13:30:26;;;;;;;1.58;0.60;;;;;;;;;;5020236;28;20182;-72
2023/08/08 13:32:51;;;;;;;2.17;0.77;;;;;;;;;;5027429;28;20610;-72
2023/08/08 13:35:17;;;;;;;2.47;1.17;;;;;;;;;;5001123;28;20598;-72
2023/08/08 13:37:42;;;;;;;2.67;0.73;;;;;;;;;;5027718;28;20225;-72
2023/08/08 13:40:08;;;;;;;2.15;0.70;;;;;;;;;;5031497;28;20533;-71
2023/08/08 13:42:34;;;;;;;2.90;0.70;;;;;;;;;;5020870;28;20240;-71
2023/08/08 13:44:59;;;;;;;2.70;0.75;;;;;;;;;;5020100;28;20218;-71
2023/08/08 13:47:24;;;;;;;3.83;1.10;;;;;;;;;;5024116;28;20650;-73
2023/08/08 13:49:52;;;;;;;2.50;0.75;;;;;;;;;;5021962;28;20265;-71
2023/08/08 13:52:17;;;;;;;3.15;0.55;;;;;;;;;;5020978;28;20196;-75
2023/08/08 13:54:42;;;;;;;3.85;0.77;;;;;;;;;;5025182;28;20635;-72
2023/08/08 13:57:08;;;;;;;2.80;0.68;;;;;;;;;;5024609;28;20580;-70
2023/08/08 13:59:33;;;;;;;2.65;0.77;;;;;;;;;;5033710;28;20193;-71
2023/08/08 14:01:59;;;;;;;2.58;0.68;;;;;;;;;;5027242;28;20607;-72
2023/08/08 14:04:24;;;;;;;2.50;0.80;;;;;;;;;;5033282;28;20292;-72
2023/08/08 14:06:49;;;;;;;1.58;0.75;;;;;;;;;;5029029;28;20537;-73
2023/08/08 14:09:15;;;;;;;2.45;0.80;;;;;;;;;;5027424;28;20209;-73
2023/08/08 14:11:40;;;;;;;4.32;1.00;;;;;;;;;;5031829;28;20198;-71
2023/08/08 14:14:06;;;;;;;4.03;0.88;;;;;;;;;;5033183;28;20237;-71
2023/08/08 14:16:32;;;;;;;2.78;0.60;;;;;;;;;;5031502;28;20632;-71
2023/08/08 14:18:57;;;;;;;2.67;0.80;;;;;;;;;;5031043;28;20715;-71
2023/08/08 14:21:23;;;;;;;4.05;0.60;;;;;;;;;;5030168;28;20186;-70
2023/08/08 14:23:48;;;;;;;2.50;0.70;;;;;;;;;;5018209;28;20276;-72
2023/08/08 14:26:13;;;;;;;2.22;0.82;;;;;;;;;;5030539;28;20198;-70
2023/08/08 14:28:39;;;;;;;3.53;1.27;;;;;;;;;;5025031;28;20182;-72
2023/08/08 14:31:06;;;;;;;2.65;0.70;;;;;;;;;;5013599;28;20568;-70
2023/08/08 14:33:32;;;;;;;2.47;0.80;;;;;;;;;;5029392;28;20281;-71